createdAt,value
2023-04-15T00:00:17.740Z,98662.25
2023-04-15T00:01:20.850Z,98669.41
2023-04-15T00:02:22.992Z,98669.09
2023-04-15T00:03:25.344Z,98665.00
2023-04-15T00:04:28.357Z,98666.56
2023-04-15T00:05:31.100Z,98664.28
2023-04-15T00:06:33.295Z,98670.78
2023-04-15T00:07:35.982Z,98666.19
2023-04-15T00:08:37.862Z,98666.50
2023-04-15T00:09:39.706Z,98680.81
2023-04-15T00:10:44.191Z,98679.19
2023-04-15T00:11:46.455Z,98679.56
2023-04-15T00:12:48.320Z,98678.69
2023-04-15T00:13:50.261Z,98683.53
2023-04-15T00:14:52.247Z,98675.56
2023-04-15T00:15:54.118Z,98679.94
2023-04-15T00:16:57.399Z,98682.84
2023-04-15T00:17:59.337Z,98692.78
2023-04-15T00:19:01.525Z,98685.56
2023-04-15T00:20:06.370Z,98688.78
2023-04-15T00:21:09.019Z,98686.06
2023-04-15T00:22:11.435Z,98682.84
2023-04-15T00:23:13.676Z,98685.28
2023-04-15T00:24:15.681Z,98684.22
2023-04-15T00:25:18.049Z,98684.00
2023-04-15T00:26:20.774Z,98681.78
2023-04-15T00:27:23.890Z,98682.72
2023-04-15T00:28:26.304Z,98686.09
2023-04-15T00:29:28.484Z,98687.38
2023-04-15T00:30:30.434Z,98676.00
2023-04-15T00:31:32.953Z,98681.28
2023-04-15T00:32:35.586Z,98683.81
2023-04-15T00:33:37.523Z,98684.75
2023-04-15T00:34:39.513Z,98674.13
2023-04-15T00:35:43.067Z,98683.00
2023-04-15T00:36:44.988Z,98675.19
2023-04-15T00:37:47.195Z,98676.69
2023-04-15T00:38:49.341Z,98678.28
2023-04-15T00:39:51.747Z,98674.41
2023-04-15T00:40:53.914Z,98677.88
2023-04-15T00:41:55.985Z,98679.81
2023-04-15T00:42:58.171Z,98679.03
2023-04-15T00:44:02.343Z,98675.41
2023-04-15T00:45:05.497Z,98672.63
2023-04-15T00:46:07.929Z,98672.38
2023-04-15T00:47:10.506Z,98665.81
2023-04-15T00:48:13.127Z,98669.44
2023-04-15T00:49:16.075Z,98667.47
2023-04-15T00:50:17.939Z,98667.28
2023-04-15T00:51:20.170Z,98667.84
2023-04-15T00:52:22.661Z,98672.53
2023-04-15T00:53:26.060Z,98661.84
2023-04-15T00:54:27.924Z,98663.94
2023-04-15T00:55:30.067Z,98659.97
2023-04-15T00:56:36.044Z,98657.16
2023-04-15T00:57:39.299Z,98664.97
2023-04-15T00:58:42.171Z,98662.06
2023-04-15T00:59:44.113Z,98659.53
2023-04-15T01:00:46.770Z,98664.81
2023-04-15T01:01:48.893Z,98665.75
2023-04-15T01:02:50.979Z,98662.06
2023-04-15T01:03:54.010Z,98657.31
2023-04-15T01:04:56.767Z,98666.53
2023-04-15T01:06:00.848Z,98660.34
2023-04-15T01:07:04.339Z,98660.34
2023-04-15T01:08:06.616Z,98665.03
2023-04-15T01:09:08.776Z,98663.09
2023-04-15T01:10:10.847Z,98655.19
2023-04-15T01:11:13.853Z,98657.22
2023-04-15T01:12:17.384Z,98653.25
2023-04-15T01:13:19.950Z,98659.19
2023-04-15T01:14:22.158Z,98651.97
2023-04-15T01:15:25.006Z,98657.59
2023-04-15T01:16:28.773Z,98653.09
2023-04-15T01:17:30.851Z,98656.53
2023-04-15T01:18:33.924Z,98658.72
2023-04-15T01:19:39.872Z,98658.44
2023-04-15T01:20:41.857Z,98661.56
2023-04-15T01:21:43.842Z,98658.16
2023-04-15T01:22:45.771Z,98660.34
2023-04-15T01:23:48.957Z,98662.72
2023-04-15T01:24:59.957Z,98656.34
2023-04-15T01:26:02.601Z,98656.72
2023-04-15T01:27:05.602Z,98649.56
2023-04-15T01:28:09.540Z,98654.06
2023-04-15T01:29:11.931Z,98652.13
2023-04-15T01:30:14.140Z,98655.81
2023-04-15T01:31:16.539Z,98653.75
2023-04-15T01:32:18.756Z,98659.84
2023-04-15T01:33:20.584Z,98662.50
2023-04-15T01:34:22.747Z,98656.00
2023-04-15T01:35:28.631Z,98664.88
2023-04-15T01:36:30.706Z,98665.75
2023-04-15T01:37:33.150Z,98662.78
2023-04-15T01:38:35.068Z,98669.34
2023-04-15T01:39:36.918Z,98663.81
2023-04-15T01:40:39.493Z,98662.72
2023-04-15T01:41:42.404Z,98667.69
2023-04-15T01:42:44.605Z,98664.34
2023-04-15T01:43:46.741Z,98668.41
2023-04-15T01:44:48.633Z,98661.78
2023-04-15T01:45:51.227Z,98665.97
2023-04-15T01:46:53.321Z,98663.81
2023-04-15T01:47:55.500Z,98664.50
2023-04-15T01:48:57.651Z,98656.84
2023-04-15T01:50:00.215Z,98659.84
2023-04-15T01:51:03.973Z,98668.75
2023-04-15T01:52:06.000Z,98664.88
2023-04-15T01:53:08.684Z,98653.31
2023-04-15T01:54:10.547Z,98669.16
2023-04-15T01:55:13.311Z,98661.94
2023-04-15T01:56:16.971Z,98669.59
2023-04-15T01:57:18.982Z,98669.44
2023-04-15T01:58:22.026Z,98674.34
2023-04-15T01:59:24.357Z,98679.09
2023-04-15T02:00:26.680Z,98671.00
2023-04-15T02:01:28.876Z,98673.63
2023-04-15T02:02:34.644Z,98672.38
2023-04-15T02:03:38.881Z,98680.13
2023-04-15T02:04:40.840Z,98671.53
2023-04-15T02:05:42.771Z,98675.50
2023-04-15T02:06:46.369Z,98672.63
2023-04-15T02:07:49.535Z,98678.22
2023-04-15T02:08:51.454Z,98667.91
2023-04-15T02:09:53.355Z,98663.06
2023-04-15T02:10:55.342Z,98663.94
2023-04-15T02:11:57.741Z,98659.37
2023-04-15T02:12:59.609Z,98662.28
2023-04-15T02:14:07.097Z,98659.03
2023-04-15T02:15:10.384Z,98660.03
2023-04-15T02:16:19.616Z,98653.41
2023-04-15T02:17:21.698Z,98658.59
2023-04-15T02:18:23.683Z,98647.00
2023-04-15T02:19:26.108Z,98657.28
2023-04-15T02:20:28.307Z,98653.56
2023-04-15T02:21:33.153Z,98654.84
2023-04-15T02:22:35.257Z,98658.94
2023-04-15T02:23:37.166Z,98659.78
2023-04-15T02:24:39.422Z,98658.59
2023-04-15T02:25:41.524Z,98656.81
2023-04-15T02:26:43.526Z,98655.56
2023-04-15T02:27:45.721Z,98654.16
2023-04-15T02:28:47.624Z,98661.69
2023-04-15T02:29:52.831Z,98659.84
2023-04-15T02:30:57.614Z,98666.41
2023-04-15T02:31:59.524Z,98656.06
2023-04-15T02:33:02.606Z,98660.19
2023-04-15T02:34:04.744Z,98664.88
2023-04-15T02:35:09.008Z,98663.38
2023-04-15T02:36:12.519Z,98673.75
2023-04-15T02:37:14.513Z,98675.06
2023-04-15T02:38:17.964Z,98674.63
2023-04-15T02:39:20.143Z,98676.16
2023-04-15T02:40:22.822Z,98679.97
2023-04-15T02:41:27.777Z,98675.13
2023-04-15T02:42:30.452Z,98678.16
2023-04-15T02:43:33.648Z,98679.25
2023-04-15T02:44:36.559Z,98672.63
2023-04-15T02:45:39.079Z,98682.13
2023-04-15T02:46:41.349Z,98677.88
2023-04-15T02:47:44.020Z,98677.16
2023-04-15T02:48:46.002Z,98677.66
2023-04-15T02:49:47.873Z,98677.81
2023-04-15T02:50:50.085Z,98670.56
2023-04-15T02:51:52.254Z,98683.44
2023-04-15T02:52:54.348Z,98679.53
2023-04-15T02:53:56.665Z,98680.28
2023-04-15T02:55:00.796Z,98680.13
2023-04-15T02:56:03.538Z,98686.16
2023-04-15T02:57:06.871Z,98691.66
2023-04-15T02:58:09.039Z,98682.06
2023-04-15T02:59:12.388Z,98674.19
2023-04-15T03:00:14.460Z,98683.72
2023-04-15T03:01:16.932Z,98682.87
2023-04-15T03:02:19.017Z,98674.94
2023-04-15T03:03:21.126Z,98684.88
2023-04-15T03:04:23.180Z,98679.69
2023-04-15T03:05:25.495Z,98681.34
2023-04-15T03:06:27.717Z,98677.66
2023-04-15T03:07:29.868Z,98685.59
2023-04-15T03:08:31.957Z,98680.19
2023-04-15T03:09:33.807Z,98676.28
2023-04-15T03:10:36.259Z,98675.41
2023-04-15T03:11:40.774Z,98679.19
2023-04-15T03:12:42.982Z,98673.91
2023-04-15T03:13:45.123Z,98676.00
2023-04-15T03:14:48.756Z,98673.91
2023-04-15T03:15:50.861Z,98682.19
2023-04-15T03:16:53.166Z,98670.56
2023-04-15T03:17:55.146Z,98670.56
2023-04-15T03:18:57.052Z,98663.06
2023-04-15T03:19:59.393Z,98666.19
2023-04-15T03:21:02.874Z,98670.38
2023-04-15T03:22:05.644Z,98667.41
2023-04-15T03:23:07.559Z,98670.03
2023-04-15T03:24:09.554Z,98665.69
2023-04-15T03:25:11.563Z,98675.66
2023-04-15T03:26:30.104Z,98672.69
2023-04-15T03:27:32.702Z,98673.03
2023-04-15T03:28:35.024Z,98671.72
2023-04-15T03:29:37.294Z,98668.84
2023-04-15T03:30:39.267Z,98667.03
2023-04-15T03:31:41.967Z,98670.13
2023-04-15T03:32:44.143Z,98668.03
2023-04-15T03:33:46.157Z,98669.00
2023-04-15T03:34:48.354Z,98669.97
2023-04-15T03:35:52.088Z,98675.34
2023-04-15T03:36:54.048Z,98670.44
2023-04-15T03:37:56.254Z,98670.28
2023-04-15T03:38:58.645Z,98669.13
2023-04-15T03:40:00.675Z,98672.75
2023-04-15T03:41:02.543Z,98667.53
2023-04-15T03:42:04.412Z,98678.97
2023-04-15T03:43:06.704Z,98684.41
2023-04-15T03:44:08.555Z,98680.19
2023-04-15T03:45:10.917Z,98679.47
2023-04-15T03:46:12.849Z,98678.28
2023-04-15T03:47:14.756Z,98676.22
2023-04-15T03:48:18.260Z,98676.28
2023-04-15T03:49:22.981Z,98676.72
2023-04-15T03:50:25.046Z,98677.00
2023-04-15T03:51:26.935Z,98669.69
2023-04-15T03:52:28.838Z,98676.81
2023-04-15T03:53:31.017Z,98683.09
2023-04-15T03:54:32.848Z,98681.75
2023-04-15T03:55:34.677Z,98686.94
2023-04-15T03:56:36.546Z,98683.09
2023-04-15T03:57:39.392Z,98682.28
2023-04-15T03:58:41.713Z,98679.22
2023-04-15T03:59:43.905Z,98679.25
2023-04-15T04:00:45.978Z,98683.72
2023-04-15T04:01:48.378Z,98689.22
2023-04-15T04:02:50.485Z,98679.38
2023-04-15T04:03:52.750Z,98685.56
2023-04-15T04:04:54.820Z,98684.41
2023-04-15T04:05:56.744Z,98686.16
2023-04-15T04:06:58.876Z,98679.38
2023-04-15T04:08:00.699Z,98680.25
2023-04-15T04:09:02.742Z,98686.88
2023-04-15T04:10:05.186Z,98678.16
2023-04-15T04:11:06.993Z,98682.72
2023-04-15T04:12:09.200Z,98682.00
2023-04-15T04:13:11.183Z,98678.03
2023-04-15T04:14:13.112Z,98680.91
2023-04-15T04:15:15.002Z,98680.03
2023-04-15T04:16:17.313Z,98679.91
2023-04-15T04:17:19.745Z,98686.19
2023-04-15T04:18:22.468Z,98682.34
2023-04-15T04:19:24.343Z,98688.19
2023-04-15T04:20:26.253Z,98688.66
2023-04-15T04:21:28.204Z,98687.66
2023-04-15T04:22:30.648Z,98684.59
2023-04-15T04:23:33.173Z,98685.44
2023-04-15T04:24:35.028Z,98681.41
2023-04-15T04:25:36.971Z,98675.75
2023-04-15T04:26:38.822Z,98675.63
2023-04-15T04:27:41.143Z,98681.53
2023-04-15T04:28:43.007Z,98682.03
2023-04-15T04:29:47.558Z,98679.81
2023-04-15T04:30:49.534Z,98679.97
2023-04-15T04:31:51.698Z,98676.66
2023-04-15T04:32:53.993Z,98678.06
2023-04-15T04:33:55.870Z,98678.12
2023-04-15T04:34:57.723Z,98681.94
2023-04-15T04:35:59.564Z,98684.75
2023-04-15T04:37:01.488Z,98681.16
2023-04-15T04:38:04.465Z,98677.53
2023-04-15T04:39:06.335Z,98680.78
2023-04-15T04:40:09.503Z,98689.47
2023-04-15T04:41:11.405Z,98683.09
2023-04-15T04:42:13.266Z,98683.37
2023-04-15T04:43:16.139Z,98684.94
2023-04-15T04:44:18.287Z,98682.59
2023-04-15T04:45:20.526Z,98682.84
2023-04-15T04:46:23.817Z,98681.75
2023-04-15T04:47:25.850Z,98684.94
2023-04-15T04:48:28.052Z,98686.09
2023-04-15T04:49:29.914Z,98685.91
2023-04-15T04:50:32.381Z,98688.97
2023-04-15T04:51:34.405Z,98689.81
2023-04-15T04:52:36.777Z,98685.69
2023-04-15T04:53:39.007Z,98695.09
2023-04-15T04:54:41.096Z,98694.38
2023-04-15T04:55:42.986Z,98694.72
2023-04-15T04:56:44.848Z,98695.25
2023-04-15T04:57:47.397Z,98687.94
2023-04-15T04:58:49.534Z,98680.66
2023-04-15T04:59:51.376Z,98677.06
2023-04-15T05:00:53.302Z,98681.16
2023-04-15T05:01:55.540Z,98680.19
2023-04-15T05:02:57.634Z,98681.16
2023-04-15T05:04:00.496Z,98676.16
2023-04-15T05:05:02.722Z,98672.44
2023-04-15T05:06:06.585Z,98675.00
2023-04-15T05:07:08.606Z,98677.41
2023-04-15T05:08:10.461Z,98675.59
2023-04-15T05:09:12.629Z,98678.19
2023-04-15T05:10:15.351Z,98681.87
2023-04-15T05:11:17.235Z,98686.00
2023-04-15T05:12:19.136Z,98684.94
2023-04-15T05:13:21.670Z,98683.09
2023-04-15T05:14:23.899Z,98682.16
2023-04-15T05:15:25.823Z,98687.88
2023-04-15T05:16:27.869Z,98687.69
2023-04-15T05:17:31.990Z,98689.97
2023-04-15T05:18:34.486Z,98693.59
2023-04-15T05:19:36.767Z,98680.78
2023-04-15T05:20:38.702Z,98687.59
2023-04-15T05:21:40.892Z,98684.34
2023-04-15T05:22:42.845Z,98686.66
2023-04-15T05:23:44.754Z,98688.34
2023-04-15T05:24:46.994Z,98686.66
2023-04-15T05:25:48.995Z,98686.44
2023-04-15T05:26:51.156Z,98686.03
2023-04-15T05:27:53.007Z,98693.50
2023-04-15T05:28:55.096Z,98687.81
2023-04-15T05:29:57.370Z,98695.97
2023-04-15T05:30:59.298Z,98694.72
2023-04-15T05:32:01.227Z,98694.59
2023-04-15T05:33:03.828Z,98689.94
2023-04-15T05:34:07.181Z,98690.53
2023-04-15T05:35:09.496Z,98696.34
2023-04-15T05:36:12.122Z,98693.28
2023-04-15T05:37:14.199Z,98700.28
2023-04-15T05:38:16.221Z,98693.13
2023-04-15T05:39:18.214Z,98690.19
2023-04-15T05:40:20.778Z,98695.75
2023-04-15T05:41:22.664Z,98693.91
2023-04-15T05:42:24.513Z,98702.94
2023-04-15T05:43:26.516Z,98706.41
2023-04-15T05:44:28.414Z,98698.13
2023-04-15T05:45:30.585Z,98695.16
2023-04-15T05:46:32.488Z,98701.59
2023-04-15T05:47:35.045Z,98703.03
2023-04-15T05:48:37.152Z,98706.16
2023-04-15T05:49:39.011Z,98700.03
2023-04-15T05:50:42.344Z,98708.50
2023-04-15T05:51:44.221Z,98701.88
2023-04-15T05:52:46.324Z,98704.41
2023-04-15T05:53:48.229Z,98701.94
2023-04-15T05:54:50.642Z,98706.00
2023-04-15T05:55:52.873Z,98704.91
2023-04-15T05:56:54.908Z,98701.97
2023-04-15T05:57:57.230Z,98702.31
2023-04-15T05:58:59.237Z,98709.78
2023-04-15T06:00:01.569Z,98708.00
2023-04-15T06:01:11.757Z,98711.09
2023-04-15T06:02:14.261Z,98709.84
2023-04-15T06:03:16.405Z,98714.03
2023-04-15T06:04:18.369Z,98714.25
2023-04-15T06:05:20.291Z,98713.91
2023-04-15T06:06:22.360Z,98724.78
2023-04-15T06:07:24.838Z,98718.00
2023-04-15T06:08:27.852Z,98719.13
2023-04-15T06:09:29.705Z,98713.03
2023-04-15T06:10:36.375Z,98726.81
2023-04-15T06:11:38.335Z,98729.56
2023-04-15T06:12:40.520Z,98729.66
2023-04-15T06:13:42.550Z,98733.38
2023-04-15T06:14:44.498Z,98728.53
2023-04-15T06:15:46.425Z,98734.00
2023-04-15T06:16:48.259Z,98737.91
2023-04-15T06:17:50.513Z,98736.50
2023-04-15T06:18:52.408Z,98737.81
2023-04-15T06:19:55.858Z,98732.38
2023-04-15T06:20:57.961Z,98738.38
2023-04-15T06:21:59.918Z,98739.41
2023-04-15T06:23:02.062Z,98736.56
2023-04-15T06:24:04.108Z,98735.44
2023-04-15T06:25:08.299Z,98736.47
2023-04-15T06:26:10.257Z,98747.12
2023-04-15T06:27:12.156Z,98738.75
2023-04-15T06:28:14.364Z,98745.31
2023-04-15T06:29:16.316Z,98744.41
2023-04-15T06:30:18.207Z,98742.34
2023-04-15T06:31:20.186Z,98746.78
2023-04-15T06:32:22.090Z,98743.00
2023-04-15T06:33:24.331Z,98738.75
2023-04-15T06:34:26.335Z,98744.75
2023-04-15T06:35:28.642Z,98739.41
2023-04-15T06:36:30.543Z,98743.03
2023-04-15T06:37:32.713Z,98747.47
2023-04-15T06:38:34.847Z,98747.78
2023-04-15T06:39:37.244Z,98745.84
2023-04-15T06:40:39.167Z,98749.13
2023-04-15T06:41:41.152Z,98751.09
2023-04-15T06:42:43.047Z,98750.63
2023-04-15T06:43:45.256Z,98742.94
2023-04-15T06:44:47.104Z,98750.19
2023-04-15T06:45:48.981Z,98749.97
2023-04-15T06:46:51.004Z,98752.78
2023-04-15T06:47:52.940Z,98749.50
2023-04-15T06:48:55.156Z,98742.31
2023-04-15T06:49:57.028Z,98750.59
2023-04-15T06:50:58.886Z,98751.78
2023-04-15T06:52:01.619Z,98751.78
2023-04-15T06:53:03.657Z,98761.19
2023-04-15T06:54:06.349Z,98752.22
2023-04-15T06:55:08.767Z,98758.63
2023-04-15T06:56:10.963Z,98755.06
2023-04-15T06:57:13.033Z,98755.78
2023-04-15T06:58:14.914Z,98751.31
2023-04-15T06:59:17.215Z,98753.53
2023-04-15T07:00:19.652Z,98755.00
2023-04-15T07:01:22.559Z,98758.28
2023-04-15T07:02:24.703Z,98760.63
2023-04-15T07:03:27.117Z,98759.47
2023-04-15T07:04:29.417Z,98765.78
2023-04-15T07:05:32.510Z,98757.75
2023-04-15T07:06:35.566Z,98763.38
2023-04-15T07:07:38.400Z,98767.50
2023-04-15T07:08:40.470Z,98774.59
2023-04-15T07:09:42.849Z,98772.97
2023-04-15T07:10:44.844Z,98764.88
2023-04-15T07:11:46.741Z,98766.81
2023-04-15T07:12:49.210Z,98766.97
2023-04-15T07:13:51.122Z,98766.78
2023-04-15T07:14:53.339Z,98765.13
2023-04-15T07:15:55.317Z,98771.59
2023-04-15T07:16:57.734Z,98772.78
2023-04-15T07:17:59.701Z,98762.72
2023-04-15T07:19:01.754Z,98765.22
2023-04-15T07:20:05.026Z,98771.34
2023-04-15T07:21:06.955Z,98763.81
2023-04-15T07:22:09.165Z,98763.69
2023-04-15T07:23:11.108Z,98764.41
2023-04-15T07:24:13.113Z,98758.56
2023-04-15T07:25:15.379Z,98766.19
2023-04-15T07:26:17.267Z,98760.16
2023-04-15T07:27:19.128Z,98755.59
2023-04-15T07:28:21.273Z,98766.63
2023-04-15T07:29:23.195Z,98763.78
2023-04-15T07:30:25.436Z,98768.25
2023-04-15T07:31:27.508Z,98764.63
2023-04-15T07:32:29.529Z,98770.44
2023-04-15T07:33:31.548Z,98771.44
2023-04-15T07:34:33.525Z,98768.66
2023-04-15T07:35:35.839Z,98774.16
2023-04-15T07:36:37.807Z,98768.31
2023-04-15T07:37:39.792Z,98772.44
2023-04-15T07:38:42.585Z,98770.31
2023-04-15T07:39:44.470Z,98769.28
2023-04-15T07:40:47.032Z,98765.59
2023-04-15T07:41:49.330Z,98772.09
2023-04-15T07:42:51.472Z,98768.75
2023-04-15T07:43:53.395Z,98769.91
2023-04-15T07:44:55.397Z,98773.34
2023-04-15T07:45:57.707Z,98774.28
2023-04-15T07:46:59.654Z,98780.56
2023-04-15T07:48:02.554Z,98777.75
2023-04-15T07:49:04.626Z,98776.38
2023-04-15T07:50:06.935Z,98783.16
2023-04-15T07:51:10.840Z,98786.25
2023-04-15T07:52:12.689Z,98781.69
2023-04-15T07:53:14.695Z,98776.63
2023-04-15T07:54:16.863Z,98781.03
2023-04-15T07:55:21.511Z,98779.75
2023-04-15T07:56:23.754Z,98780.22
2023-04-15T07:57:25.605Z,98780.75
2023-04-15T07:58:27.503Z,98781.72
2023-04-15T07:59:31.180Z,98781.75
2023-04-15T08:00:33.334Z,98780.22
2023-04-15T08:01:35.803Z,98787.31
2023-04-15T08:02:39.048Z,98786.75
2023-04-15T08:03:43.209Z,98779.31
2023-04-15T08:04:45.364Z,98774.87
2023-04-15T08:05:47.507Z,98779.38
2023-04-15T08:06:50.438Z,98786.09
2023-04-15T08:07:52.345Z,98781.41
2023-04-15T08:08:57.320Z,98781.94
2023-04-15T08:09:59.236Z,98783.31
2023-04-15T08:11:01.232Z,98785.09
2023-04-15T08:12:03.854Z,98782.25
2023-04-15T08:13:06.053Z,98785.97
2023-04-15T08:14:08.135Z,98780.31
2023-04-15T08:15:10.399Z,98780.19
2023-04-15T08:16:16.870Z,98774.03
2023-04-15T08:17:19.107Z,98782.75
2023-04-15T08:18:21.298Z,98778.00
2023-04-15T08:19:24.290Z,98785.09
2023-04-15T08:20:26.248Z,98780.91
2023-04-15T08:21:30.829Z,98777.38
2023-04-15T08:22:33.129Z,98779.59
2023-04-15T08:23:34.961Z,98778.12
2023-04-15T08:24:37.666Z,98781.78
2023-04-15T08:25:41.380Z,98789.47
2023-04-15T08:26:43.293Z,98777.12
2023-04-15T08:27:46.206Z,98779.75
2023-04-15T08:28:48.729Z,98780.03
2023-04-15T08:29:50.683Z,98783.97
2023-04-15T08:30:55.533Z,98788.53
2023-04-15T08:31:57.847Z,98791.88
2023-04-15T08:33:00.898Z,98785.91
2023-04-15T08:34:03.600Z,98790.25
2023-04-15T08:35:06.464Z,98790.75
2023-04-15T08:36:09.131Z,98790.75
2023-04-15T08:37:12.208Z,98790.63
2023-04-15T08:38:15.156Z,98789.34
2023-04-15T08:39:17.778Z,98790.00
2023-04-15T08:40:21.153Z,98796.25
2023-04-15T08:41:25.413Z,98789.00
2023-04-15T08:42:49.003Z,98794.50
2023-04-15T08:43:56.835Z,98789.09
2023-04-15T08:45:01.757Z,98788.72
2023-04-15T08:46:05.629Z,98791.25
2023-04-15T08:47:09.078Z,98798.16
2023-04-15T08:48:16.598Z,98795.69
2023-04-15T08:49:20.823Z,98796.87
2023-04-15T08:50:23.746Z,98792.66
2023-04-15T08:51:26.579Z,98793.97
2023-04-15T08:52:30.577Z,98789.22
2023-04-15T08:53:32.693Z,98790.56
2023-04-15T08:54:36.363Z,98793.72
2023-04-15T08:55:47.373Z,98807.66
2023-04-15T08:56:50.338Z,98800.56
2023-04-15T08:57:52.257Z,98804.50
2023-04-15T08:58:54.537Z,98801.62
2023-04-15T08:59:57.703Z,98798.97
2023-04-15T09:00:59.872Z,98803.87
2023-04-15T09:02:02.827Z,98802.16
2023-04-15T09:03:09.065Z,98802.78
2023-04-15T09:04:12.585Z,98807.31
2023-04-15T09:05:14.977Z,98805.50
2023-04-15T09:06:17.930Z,98803.03
2023-04-15T09:07:19.915Z,98819.19
2023-04-15T09:08:22.235Z,98807.34
2023-04-15T09:09:24.146Z,98804.78
2023-04-15T09:10:26.502Z,98805.66
2023-04-15T09:11:31.425Z,98810.78
2023-04-15T09:12:36.214Z,98802.34
2023-04-15T09:13:38.287Z,98803.78
2023-04-15T09:14:42.583Z,98803.19
2023-04-15T09:15:44.795Z,98808.66
2023-04-15T09:16:59.144Z,98813.25
2023-04-15T09:18:01.311Z,98808.12
2023-04-15T09:19:21.712Z,98809.16
2023-04-15T09:20:24.112Z,98809.38
2023-04-15T09:21:26.476Z,98812.31
2023-04-15T09:22:32.668Z,98813.91
2023-04-15T09:23:36.282Z,98811.13
2023-04-15T09:24:41.014Z,98807.72
2023-04-15T09:25:43.190Z,98813.81
2023-04-15T09:26:45.518Z,98815.88
2023-04-15T09:27:51.789Z,98806.03
2023-04-15T09:28:53.651Z,98810.69
2023-04-15T09:29:55.667Z,98816.75
2023-04-15T09:30:58.880Z,98811.19
2023-04-15T09:32:14.093Z,98805.19
2023-04-15T09:33:15.953Z,98807.94
2023-04-15T09:34:18.002Z,98809.38
2023-04-15T09:35:24.444Z,98802.47
2023-04-15T09:36:29.737Z,98811.59
2023-04-15T09:37:36.587Z,98806.94
2023-04-15T09:38:56.231Z,98809.03
2023-04-15T09:39:58.086Z,98803.31
2023-04-15T09:41:00.298Z,98800.97
2023-04-15T09:42:07.153Z,98808.09
2023-04-15T09:43:13.025Z,98802.06
2023-04-15T09:44:27.230Z,98797.37
2023-04-15T09:45:29.967Z,98788.19
2023-04-15T09:46:45.402Z,98799.06
2023-04-15T09:47:47.315Z,98795.84
2023-04-15T09:49:08.849Z,98799.97
2023-04-15T09:50:10.877Z,98793.19
2023-04-15T09:51:12.864Z,98785.84
2023-04-15T09:52:14.811Z,98786.00
2023-04-15T09:53:19.346Z,98790.03
2023-04-15T09:54:21.579Z,98789.09
2023-04-15T09:55:23.603Z,98787.44
2023-04-15T09:56:34.796Z,98797.97
2023-04-15T09:57:37.976Z,98791.38
2023-04-15T09:58:41.706Z,98795.69
2023-04-15T09:59:44.014Z,98793.19
2023-04-15T10:00:48.706Z,98787.91
2023-04-15T10:01:51.219Z,98793.88
2023-04-15T10:02:53.400Z,98791.69
2023-04-15T10:03:57.408Z,98786.28
2023-04-15T10:05:00.494Z,98798.41
2023-04-15T10:06:03.706Z,98803.38
2023-04-15T10:07:06.450Z,98795.78
2023-04-15T10:08:09.278Z,98799.53
2023-04-15T10:09:11.624Z,98801.25
2023-04-15T10:10:14.825Z,98797.22
2023-04-15T10:11:20.013Z,98793.91
2023-04-15T10:12:23.228Z,98802.69
2023-04-15T10:13:27.189Z,98804.47
2023-04-15T10:14:34.220Z,98813.19
2023-04-15T10:15:36.661Z,98805.31
2023-04-15T10:16:43.085Z,98797.09
2023-04-15T10:17:45.829Z,98806.88
2023-04-15T10:18:51.569Z,98813.00
2023-04-15T10:19:55.081Z,98815.19
2023-04-15T10:20:57.220Z,98805.63
2023-04-15T10:21:59.965Z,98802.63
2023-04-15T10:23:02.496Z,98807.53
2023-04-15T10:24:06.218Z,98814.09
2023-04-15T10:25:09.734Z,98805.75
2023-04-15T10:26:14.805Z,98802.84
2023-04-15T10:27:18.779Z,98810.66
2023-04-15T10:28:24.948Z,98805.94
2023-04-15T10:29:27.345Z,98806.88
2023-04-15T10:30:29.307Z,98803.81
2023-04-15T10:31:31.874Z,98807.62
2023-04-15T10:32:34.447Z,98800.78
2023-04-15T10:33:38.850Z,98810.38
2023-04-15T10:34:41.524Z,98806.81
2023-04-15T10:35:44.284Z,98808.09
2023-04-15T10:36:47.337Z,98805.16
2023-04-15T10:37:49.333Z,98808.78
2023-04-15T10:38:51.593Z,98796.56
2023-04-15T10:39:53.513Z,98813.03
2023-04-15T10:41:31.390Z,98813.59
2023-04-15T10:42:36.479Z,98812.13
2023-04-15T10:43:38.366Z,98804.56
2023-04-15T10:44:44.461Z,98807.06
2023-04-15T10:45:48.792Z,98803.16
2023-04-15T10:46:52.548Z,98813.59
2023-04-15T10:47:59.615Z,98806.59
2023-04-15T10:49:17.386Z,98811.84
2023-04-15T10:50:19.732Z,98806.88
2023-04-15T10:51:32.133Z,98813.06
2023-04-15T10:52:34.029Z,98819.53
2023-04-15T10:53:37.962Z,98817.78
2023-04-15T10:54:39.903Z,98817.56
2023-04-15T10:55:42.139Z,98825.78
2023-04-15T10:56:45.760Z,98814.06
2023-04-15T10:57:52.235Z,98822.22
2023-04-15T10:58:54.137Z,98827.09
2023-04-15T11:00:00.388Z,98825.06
2023-04-15T11:01:03.516Z,98835.69
2023-04-15T11:02:07.425Z,98832.84
2023-04-15T11:03:10.001Z,98825.13
2023-04-15T11:04:12.452Z,98830.69
2023-04-15T11:05:16.372Z,98828.66
2023-04-15T11:06:18.559Z,98828.59
2023-04-15T11:07:52.967Z,98833.66
2023-04-15T11:09:02.563Z,98830.56
2023-04-15T11:10:30.115Z,98833.47
2023-04-15T11:12:09.923Z,98831.75
2023-04-15T11:13:11.812Z,98838.00
2023-04-15T11:14:16.834Z,98830.78
2023-04-15T11:15:27.844Z,98832.91
2023-04-15T11:16:29.781Z,98834.84
2023-04-15T11:17:32.054Z,98846.16
2023-04-15T11:18:34.719Z,98845.16
2023-04-15T11:19:40.313Z,98841.00
2023-04-15T11:20:48.122Z,98859.28
2023-04-15T11:21:50.029Z,98844.44
2023-04-15T11:23:08.175Z,98843.66
2023-04-15T11:24:28.008Z,98852.31
2023-04-15T11:25:34.839Z,98839.22
2023-04-15T11:26:37.551Z,98834.41
2023-04-15T11:27:39.490Z,98843.47
2023-04-15T11:28:45.137Z,98840.91
2023-04-15T11:29:47.112Z,98836.63
2023-04-15T11:30:49.524Z,98847.91
2023-04-15T11:31:51.609Z,98837.81
2023-04-15T11:32:55.942Z,98840.34
2023-04-15T11:34:01.667Z,98844.03
2023-04-15T11:35:03.676Z,98843.66
2023-04-15T11:36:05.803Z,98837.41
2023-04-15T11:37:08.059Z,98844.19
2023-04-15T11:38:14.448Z,98836.97
2023-04-15T11:39:16.781Z,98844.34
2023-04-15T11:40:29.671Z,98846.41
2023-04-15T11:41:31.672Z,98850.16
2023-04-15T11:42:46.515Z,98844.31
2023-04-15T11:43:51.977Z,98844.31
2023-04-15T11:45:11.786Z,98848.47
2023-04-15T11:46:13.733Z,98844.84
2023-04-15T11:47:25.205Z,98841.75
2023-04-15T11:48:29.745Z,98834.84
2023-04-15T11:49:33.950Z,98844.44
2023-04-15T11:50:37.473Z,98843.59
2023-04-15T11:51:39.371Z,98843.56
2023-04-15T11:52:41.502Z,98845.62
2023-04-15T11:53:44.324Z,98841.91
2023-04-15T11:54:46.221Z,98844.44
2023-04-15T11:55:51.005Z,98838.91
2023-04-15T11:56:54.615Z,98851.28
2023-04-15T11:58:18.825Z,98849.84
2023-04-15T11:59:20.745Z,98847.63
2023-04-15T12:00:23.309Z,98854.16
2023-04-15T12:01:36.525Z,98855.34
2023-04-15T12:02:39.450Z,98859.81
2023-04-15T12:03:44.013Z,98855.69
2023-04-15T12:04:46.301Z,98850.59
2023-04-15T12:06:13.377Z,98850.50
2023-04-15T12:07:15.495Z,98856.09
2023-04-15T12:08:17.351Z,98850.09
2023-04-15T12:09:20.385Z,98850.47
2023-04-15T12:10:24.892Z,98851.38
2023-04-15T12:11:26.667Z,98857.56
2023-04-15T12:12:29.100Z,98858.50
2023-04-15T12:13:30.944Z,98858.72
2023-04-15T12:14:33.785Z,98857.41
2023-04-15T12:15:39.318Z,98861.84
2023-04-15T12:16:49.559Z,98865.63
2023-04-15T12:17:55.092Z,98857.69
2023-04-15T12:19:01.603Z,98862.62
2023-04-15T12:20:04.418Z,98853.94
2023-04-15T12:21:12.409Z,98863.25
2023-04-15T12:22:16.961Z,98864.84
2023-04-15T12:23:21.763Z,98863.50
2023-04-15T12:24:23.756Z,98859.53